createdAt,value
2023-10-17T00:03:21.341Z,10.50
2023-10-17T00:08:23.383Z,7.90
2023-10-17T00:13:30.854Z,11.30
2023-10-17T00:18:32.269Z,10.10
2023-10-17T00:23:35.330Z,10.30
2023-10-17T00:28:36.883Z,10.80
2023-10-17T00:33:42.250Z,9.70
2023-10-17T00:38:44.333Z,10.70
2023-10-17T00:43:45.733Z,10.90
2023-10-17T00:48:48.700Z,12.10
2023-10-17T00:53:50.952Z,10.60
2023-10-17T00:58:52.333Z,12.30
2023-10-17T01:03:55.493Z,11.90
2023-10-17T01:14:33.118Z,9.60
2023-10-17T01:19:36.298Z,9.80
2023-10-17T01:24:41.452Z,10.60
2023-10-17T01:29:44.766Z,15.90
2023-10-17T01:34:47.861Z,10.40
2023-10-17T01:39:49.294Z,8.40
2023-10-17T01:44:51.947Z,8.70
2023-10-17T01:49:53.307Z,7.30
2023-10-17T01:54:54.732Z,11.50
2023-10-17T01:59:56.210Z,10.00
2023-10-17T02:04:58.744Z,9.50
2023-10-17T02:10:01.547Z,5.80
2023-10-17T02:15:06.953Z,12.50
2023-10-17T02:20:19.031Z,12.40
2023-10-17T02:25:22.772Z,8.50
2023-10-17T02:30:25.045Z,11.50
2023-10-17T02:35:41.808Z,9.20
2023-10-17T02:40:51.814Z,12.20
2023-10-17T02:45:54.153Z,11.90
2023-10-17T02:51:03.832Z,11.10
2023-10-17T02:56:18.922Z,11.20
2023-10-17T03:01:23.252Z,12.00
2023-10-17T03:06:24.804Z,11.50
2023-10-17T03:11:48.018Z,11.90
2023-10-17T03:16:53.567Z,10.70
2023-10-17T03:22:00.571Z,10.20
2023-10-17T03:27:04.757Z,14.30
2023-10-17T03:32:12.064Z,12.00
2023-10-17T03:37:25.570Z,13.20
2023-10-17T03:42:31.052Z,15.50
2023-10-17T03:47:32.631Z,12.30
2023-10-17T03:52:34.396Z,8.40
2023-10-17T03:57:40.138Z,12.20
2023-10-17T04:02:42.476Z,12.80
2023-10-17T04:07:52.486Z,13.00
2023-10-17T04:13:13.851Z,15.60
2023-10-17T04:18:15.697Z,14.20
2023-10-17T04:23:21.982Z,15.50
2023-10-17T04:28:26.760Z,11.00
2023-10-17T04:33:29.578Z,9.70
2023-10-17T04:38:37.323Z,13.70
2023-10-17T04:43:44.768Z,13.80
2023-10-17T04:48:48.806Z,14.50
2023-10-17T04:53:52.501Z,10.60
2023-10-17T04:58:57.407Z,14.10
2023-10-17T05:03:59.515Z,14.10
2023-10-17T05:09:02.706Z,12.00
2023-10-17T05:14:23.174Z,12.80
2023-10-17T05:19:43.452Z,13.50
2023-10-17T05:25:05.014Z,11.40
2023-10-17T05:30:27.790Z,13.20
2023-10-17T05:35:47.852Z,13.20
2023-10-17T05:41:08.028Z,8.90
2023-10-17T05:46:28.369Z,11.90
2023-10-17T05:51:49.733Z,14.30
2023-10-17T05:57:10.135Z,13.10
2023-10-17T06:02:30.261Z,10.60
2023-10-17T06:07:50.268Z,11.70
2023-10-17T06:13:10.628Z,9.30
2023-10-17T06:18:19.023Z,16.50
2023-10-17T06:23:39.474Z,9.50
2023-10-17T06:28:47.168Z,22.30
2023-10-17T06:33:53.232Z,27.30
2023-10-17T06:38:55.601Z,25.00
2023-10-17T06:44:05.980Z,26.60
2023-10-17T06:49:28.398Z,25.60
2023-10-17T06:54:32.032Z,15.20
2023-10-17T06:59:36.899Z,12.10
2023-10-17T07:04:38.647Z,14.60
2023-10-17T07:09:40.750Z,15.40
2023-10-17T07:14:48.215Z,13.10
2023-10-17T07:19:59.454Z,11.90
2023-10-17T07:25:02.927Z,11.50
2023-10-17T07:30:13.696Z,10.20
2023-10-17T07:35:26.011Z,16.30
2023-10-17T07:40:33.999Z,20.60
2023-10-17T07:45:42.209Z,18.20
2023-10-17T07:50:43.950Z,16.50
2023-10-17T07:55:49.788Z,22.20
2023-10-17T08:00:51.321Z,16.20
2023-10-17T08:06:05.888Z,19.80
2023-10-17T08:11:14.807Z,13.00
2023-10-17T08:16:25.681Z,13.30
2023-10-17T08:21:33.230Z,12.90
2023-10-17T08:26:40.980Z,9.90
2023-10-17T08:31:45.548Z,10.40
2023-10-17T08:36:50.368Z,10.10
2023-10-17T08:41:54.047Z,12.20
2023-10-17T08:46:56.817Z,12.40
2023-10-17T08:51:58.937Z,11.20
2023-10-17T08:57:02.035Z,9.80
2023-10-17T09:02:04.775Z,9.60
2023-10-17T09:07:09.157Z,12.40
2023-10-17T09:12:22.499Z,13.20
2023-10-17T09:17:26.875Z,12.30
2023-10-17T09:22:31.506Z,11.10
2023-10-17T09:27:34.084Z,8.50
2023-10-17T09:32:41.168Z,8.50
2023-10-17T09:37:51.261Z,7.10
2023-10-17T09:42:54.166Z,9.20
2023-10-17T09:47:59.644Z,8.10
2023-10-17T09:53:18.701Z,7.20
2023-10-17T09:58:28.768Z,7.80
2023-10-17T10:03:31.528Z,5.00
2023-10-17T10:08:33.644Z,6.70
2023-10-17T10:14:01.761Z,5.90
2023-10-17T10:19:04.051Z,7.80
2023-10-17T10:24:18.589Z,6.50
2023-10-17T10:29:24.445Z,6.80
2023-10-17T10:34:26.709Z,6.70
2023-10-17T10:39:28.310Z,6.00
2023-10-17T10:44:30.474Z,5.80
2023-10-17T10:49:32.373Z,8.10
2023-10-17T10:54:51.265Z,5.60
2023-10-17T10:59:53.001Z,6.10
2023-10-17T11:04:56.836Z,6.00
2023-10-17T11:10:07.521Z,12.60
2023-10-17T11:15:16.267Z,7.30
2023-10-17T11:20:19.481Z,7.60
2023-10-17T11:25:27.070Z,5.00
2023-10-17T11:30:55.560Z,5.40
2023-10-17T11:36:03.421Z,5.00
2023-10-17T11:41:05.649Z,5.30
2023-10-17T11:46:13.541Z,5.90
2023-10-17T11:51:18.714Z,4.90
2023-10-17T11:56:21.525Z,5.20
2023-10-17T12:01:23.760Z,7.40
2023-10-17T12:06:29.228Z,6.10
2023-10-17T12:11:31.219Z,4.20
2023-10-17T12:16:34.796Z,4.90
2023-10-17T12:21:36.477Z,4.30
2023-10-17T12:26:38.073Z,4.40
2023-10-17T12:31:41.158Z,6.00
2023-10-17T12:36:46.820Z,4.30
2023-10-17T12:41:49.773Z,5.10
2023-10-17T12:46:51.420Z,8.10
2023-10-17T12:51:54.013Z,6.00
2023-10-17T12:56:55.663Z,6.30
2023-10-17T13:01:57.638Z,4.60
2023-10-17T13:06:59.275Z,5.50
2023-10-17T13:12:01.187Z,6.10
2023-10-17T13:17:03.857Z,9.10
2023-10-17T13:22:09.223Z,4.90
2023-10-17T13:32:19.334Z,5.90
2023-10-17T13:37:20.903Z,5.30
2023-10-17T13:42:23.706Z,5.20
2023-10-17T13:47:26.404Z,4.20
2023-10-17T13:52:29.196Z,4.90
2023-10-17T13:57:32.440Z,6.70
2023-10-17T14:02:36.125Z,7.30
2023-10-17T14:07:40.181Z,7.50
2023-10-17T14:12:42.614Z,5.40
2023-10-17T14:17:47.251Z,9.20
2023-10-17T14:23:11.942Z,10.50
2023-10-17T14:28:13.504Z,8.90
2023-10-17T14:33:15.656Z,10.00
2023-10-17T14:38:17.185Z,9.60
2023-10-17T14:43:18.731Z,8.30
2023-10-17T14:48:21.259Z,10.60
2023-10-17T14:53:29.242Z,15.40
2023-10-17T14:58:37.626Z,11.10
2023-10-17T15:03:39.333Z,15.00
2023-10-17T15:08:41.374Z,7.30
2023-10-17T15:13:43.166Z,8.70
2023-10-17T15:18:45.622Z,10.30
2023-10-17T15:23:48.063Z,6.60
2023-10-17T15:28:49.503Z,7.70
2023-10-17T15:33:51.268Z,5.00
2023-10-17T15:38:53.933Z,7.90
2023-10-17T15:43:55.404Z,7.90
2023-10-17T15:48:56.884Z,7.20
2023-10-17T15:53:58.341Z,7.00
2023-10-17T15:58:59.785Z,6.90
2023-10-17T16:04:01.763Z,11.00
2023-10-17T16:09:03.422Z,8.00
2023-10-17T16:14:04.880Z,8.30
2023-10-17T16:19:07.686Z,8.20
2023-10-17T16:24:09.430Z,8.40
2023-10-17T16:29:11.238Z,14.80
2023-10-17T16:34:15.221Z,7.40
2023-10-17T16:39:16.680Z,7.70
2023-10-17T16:44:18.211Z,6.20
2023-10-17T16:49:21.300Z,11.00
2023-10-17T16:54:23.639Z,8.50
2023-10-17T16:59:27.342Z,10.40
2023-10-17T17:04:32.149Z,9.00
2023-10-17T17:09:34.002Z,8.90
2023-10-17T17:14:37.164Z,15.00
2023-10-17T17:19:39.012Z,11.00
2023-10-17T17:24:40.661Z,12.50
2023-10-17T17:29:42.345Z,12.50
2023-10-17T17:34:44.458Z,15.90
2023-10-17T17:39:46.956Z,7.80
2023-10-17T17:44:48.484Z,8.90
2023-10-17T17:49:50.119Z,10.50
2023-10-17T17:54:52.305Z,13.90
2023-10-17T17:59:53.942Z,10.40
2023-10-17T18:04:55.413Z,10.10
2023-10-17T18:09:57.475Z,11.90
2023-10-17T18:15:00.146Z,15.00
2023-10-17T18:20:02.161Z,16.30
2023-10-17T18:25:04.417Z,12.20
2023-10-17T18:30:09.750Z,10.00
2023-10-17T18:35:11.542Z,10.60
2023-10-17T18:40:13.690Z,7.20
2023-10-17T18:45:16.786Z,9.80
2023-10-17T18:50:18.779Z,13.40
2023-10-17T18:55:21.095Z,10.20
2023-10-17T19:00:23.863Z,12.50
2023-10-17T19:05:25.465Z,11.30
2023-10-17T19:10:27.954Z,10.80
2023-10-17T19:15:29.504Z,13.00
2023-10-17T19:20:31.780Z,9.70
2023-10-17T19:25:33.195Z,14.40
2023-10-17T19:30:38.171Z,10.70
2023-10-17T19:35:39.635Z,13.20
2023-10-17T19:40:41.190Z,8.80
2023-10-17T19:45:42.971Z,6.20
2023-10-17T19:50:44.881Z,8.90
2023-10-17T19:55:48.475Z,8.40
2023-10-17T20:00:50.409Z,10.20
2023-10-17T20:05:52.851Z,8.90
2023-10-17T20:11:01.593Z,8.20
2023-10-17T20:16:07.334Z,9.00
2023-10-17T20:21:11.158Z,6.20
2023-10-17T20:26:12.626Z,10.90
2023-10-17T20:31:27.227Z,8.00
2023-10-17T20:36:30.195Z,9.90
2023-10-17T20:41:34.290Z,9.70
2023-10-17T20:46:36.224Z,11.70
2023-10-17T20:51:39.344Z,9.80
2023-10-17T20:56:42.700Z,11.10
2023-10-17T21:01:44.609Z,9.00
2023-10-17T21:06:46.639Z,12.00
2023-10-17T21:11:48.437Z,15.30
2023-10-17T21:16:49.950Z,9.50
2023-10-17T21:21:53.064Z,15.20
2023-10-17T21:26:54.637Z,11.50
2023-10-17T21:31:56.431Z,9.10
2023-10-17T21:36:58.124Z,14.10
2023-10-17T21:42:00.231Z,15.00
2023-10-17T21:47:02.997Z,7.80
2023-10-17T21:52:04.865Z,9.20
2023-10-17T21:57:06.686Z,10.60
2023-10-17T22:02:09.149Z,9.70
2023-10-17T22:07:11.504Z,12.90
2023-10-17T22:12:13.159Z,10.30
2023-10-17T22:17:15.548Z,12.20
2023-10-17T22:22:17.052Z,8.20
2023-10-17T22:27:19.380Z,12.50
2023-10-17T22:32:20.865Z,10.00
2023-10-17T22:37:22.333Z,12.80
2023-10-17T22:42:23.918Z,8.60
2023-10-17T22:47:25.392Z,4.50
2023-10-17T22:52:26.967Z,10.60
2023-10-17T22:57:28.413Z,10.10
2023-10-17T23:02:29.875Z,16.60
2023-10-17T23:07:31.706Z,13.80
2023-10-17T23:12:34.786Z,11.60
2023-10-17T23:17:36.333Z,8.30
2023-10-17T23:22:38.252Z,14.90
2023-10-17T23:27:41.317Z,9.60
2023-10-17T23:32:47.280Z,9.90
2023-10-17T23:37:50.631Z,10.80
2023-10-17T23:42:52.060Z,10.20
2023-10-17T23:47:55.477Z,10.80
2023-10-17T23:52:57.484Z,13.10
2023-10-17T23:57:58.926Z,10.90
